KDLF/DLF METAR and TAF weather

Enter ICAO airport designator
Station Type Date Time Source
KDLF METAR 2021/05/15 01:56 UTC NOAA

KDLF 150156Z AUTO 11007KT 10SM BKN070 24/17 A3001 RMK AO2 SLP153 T02420167 $


Station Type Date Time Source
KDLF Decoded METAR 2021/05/15 01:56 UTC NOAA

Laughlin, Laughlin Air Force Base Auxiliary Airfield, TX, United States (KDLF) 29-07-00N 100-28-00W 294M
May 14, 2021 - 09:56 PM EDT / 2021.05.15 0156 UTC
Wind: from the ESE (110 degrees) at 8 MPH (7 KT):0
Visibility: 10 mile(s):0
Sky conditions: mostly cloudy
Temperature: 75.6 F (24.2 C)
Dew Point: 62.1 F (16.7 C)
Relative Humidity: 62%
Pressure (altimeter): 30.01 in. Hg (1016 hPa)
ob: KDLF 150156Z AUTO 11007KT 10SM BKN070 24/17 A3001 RMK AO2 SLP153 T02420167
cycle: 2

Station Type Date Time Source
KDLF TAF 2021/05/14 22:55 UTC NOAA

TAF
AMD KDLF 142247Z 1422/1601 14012G18KT 9999 BKN055 BKN200 QNH3004INS
BECMG 1423/1424 13009KT 9999 SCT055 SCT200 QNH3003INS
BECMG 1508/1509 13009KT 9999 OVC020 QNH3002INS
BECMG 1511/1512 14012KT 9999 VCSH OVC010 QNH3000INS
BECMG 1514/1515 14012G22KT 9000 -SHRA VCTS OVC025CB QNH2988INS
TEMPO 1515/1521 VRB25G35KT 8000 TSRAGR OVC030CB TX26/1423Z TN20/1512Z LAST NO
AMDS AFT 1422 NEXT 1619

Example: see airport list